Aviation Digital Data Service (ADDS)

Output produced by METARs form (0849 UTC 17 November 2018)
found at http://www.aviationweather.gov/metar/data/
 
LUKK 170830Z 01007KT 9999 OVC027 00/M04 Q1034 R08/250199 NOSIG
TAF LUKK 170520Z 1706/1806 03012KT 9999 OVC020